KRAC/RAC METAR and TAF weather

Enter ICAO airport designator
Station Type Date Time Source
KRAC METAR 2019/06/17 06:53 UTC NOAA

KRAC 170653Z AUTO 01007KT 10SM OVC019 12/09 A2997 RMK AO2 SLP150 T01170089


Station Type Date Time Source
KRAC Decoded METAR 2019/06/17 06:53 UTC NOAA

BATTEN INTERNATIONAL AIRPORT, WI, United States (KRAC) 42-46N 87-49W 203M
Jun 17, 2019 - 02:53 AM EDT / 2019.06.17 0653 UTC
Wind: from the N (010 degrees) at 8 MPH (7 KT):0
Visibility: 10 mile(s):0
Sky conditions: overcast
Temperature: 53.1 F (11.7 C)
Dew Point: 48.0 F (8.9 C)
Relative Humidity: 82%
Pressure (altimeter): 29.97 in. Hg (1014 hPa)
ob: KRAC 170653Z AUTO 01007KT 10SM OVC019 12/09 A2997 RMK AO2 SLP150 T01170089
cycle: 7

Station Type Date Time Source
KRAC TAF UTC NOAA

Error!

Example: see airport list